createdAt,value
2022-09-11T00:00:28.607Z,15.30
2022-09-11T00:02:56.882Z,15.20
2022-09-11T00:05:24.407Z,15.20
2022-09-11T00:07:52.728Z,15.30
2022-09-11T00:10:20.169Z,15.20
2022-09-11T00:12:49.697Z,15.00
2022-09-11T00:15:26.563Z,14.90
2022-09-11T00:17:53.286Z,14.70
2022-09-11T00:20:20.385Z,14.70
2022-09-11T00:22:50.878Z,14.70
2022-09-11T00:25:18.267Z,14.60
2022-09-11T00:27:48.152Z,14.50
2022-09-11T00:30:15.481Z,14.50
2022-09-11T00:32:42.388Z,14.60
2022-09-11T00:35:11.462Z,14.80
2022-09-11T00:37:38.545Z,14.90
2022-09-11T00:40:06.503Z,14.90
2022-09-11T00:42:33.195Z,15.00
2022-09-11T00:45:06.962Z,15.00
2022-09-11T00:47:37.275Z,15.00
2022-09-11T00:50:19.462Z,15.00
2022-09-11T00:52:59.452Z,14.90
2022-09-11T00:55:33.537Z,15.00
2022-09-11T00:58:05.047Z,14.80
2022-09-11T01:00:36.377Z,14.90
2022-09-11T01:03:06.825Z,14.90
2022-09-11T01:05:37.726Z,14.90
2022-09-11T01:08:04.781Z,15.00
2022-09-11T01:10:55.329Z,15.00
2022-09-11T01:13:52.727Z,15.10
2022-09-11T01:16:43.346Z,15.10
2022-09-11T01:19:38.008Z,15.10
2022-09-11T01:22:45.909Z,15.10
2022-09-11T01:25:40.835Z,15.20
2022-09-11T01:28:29.369Z,15.40
2022-09-11T01:31:07.433Z,15.50
2022-09-11T01:33:55.825Z,15.30
2022-09-11T01:36:35.163Z,15.30
2022-09-11T01:39:05.239Z,15.30
2022-09-11T01:42:00.888Z,15.40
2022-09-11T01:44:34.743Z,15.30
2022-09-11T01:47:04.190Z,15.20
2022-09-11T01:49:43.366Z,15.20
2022-09-11T01:52:20.835Z,15.30
2022-09-11T01:54:54.022Z,15.50
2022-09-11T01:57:40.622Z,15.40
2022-09-11T02:00:11.822Z,15.50
2022-09-11T02:02:45.303Z,15.30
2022-09-11T02:06:04.805Z,15.20
2022-09-11T02:08:52.041Z,15.20
2022-09-11T02:11:20.037Z,15.40
2022-09-11T02:14:14.872Z,15.30
2022-09-11T02:17:05.493Z,15.20
2022-09-11T02:19:33.394Z,15.30
2022-09-11T02:22:00.358Z,15.10
2022-09-11T02:24:29.198Z,15.20
2022-09-11T02:27:00.998Z,15.20
2022-09-11T02:29:30.969Z,15.10
2022-09-11T02:32:00.750Z,15.10
2022-09-11T02:34:31.526Z,15.10
2022-09-11T02:37:17.264Z,15.00
2022-09-11T02:40:09.423Z,14.90
2022-09-11T02:43:23.623Z,15.00
2022-09-11T02:46:19.435Z,14.90
2022-09-11T02:49:03.852Z,15.00
2022-09-11T02:51:45.564Z,14.80
2022-09-11T02:54:21.655Z,15.00
2022-09-11T02:57:04.715Z,15.00
2022-09-11T03:00:10.913Z,15.00
2022-09-11T03:02:41.718Z,15.10
2022-09-11T03:05:13.984Z,14.80
2022-09-11T03:07:41.162Z,14.90
2022-09-11T03:10:14.789Z,14.90
2022-09-11T03:12:44.517Z,14.90
2022-09-11T03:15:12.849Z,15.00
2022-09-11T03:17:47.457Z,14.90
2022-09-11T03:20:17.816Z,14.70
2022-09-11T03:22:46.546Z,14.70
2022-09-11T03:25:19.555Z,14.70
2022-09-11T03:27:52.080Z,14.60
2022-09-11T03:33:08.599Z,14.80
2022-09-11T03:35:45.497Z,14.70
2022-09-11T03:38:18.340Z,14.70
2022-09-11T03:40:45.352Z,14.60
2022-09-11T03:43:16.794Z,14.50
2022-09-11T03:45:45.179Z,14.40
2022-09-11T03:48:11.972Z,14.50
2022-09-11T03:50:39.083Z,14.40
2022-09-11T03:53:06.091Z,14.40
2022-09-11T03:55:33.918Z,14.30
2022-09-11T03:58:01.893Z,14.30
2022-09-11T04:00:29.388Z,14.30
2022-09-11T04:02:58.795Z,14.20
2022-09-11T04:05:26.093Z,14.20
2022-09-11T04:07:55.433Z,14.10
2022-09-11T04:10:22.572Z,14.20
2022-09-11T04:12:49.356Z,14.30
2022-09-11T04:15:16.641Z,14.20
2022-09-11T04:17:43.402Z,14.20
2022-09-11T04:20:11.205Z,14.20
2022-09-11T04:22:39.408Z,14.30
2022-09-11T04:25:07.203Z,14.20
2022-09-11T04:27:34.480Z,14.30
2022-09-11T04:30:01.591Z,14.30
2022-09-11T04:32:29.317Z,14.30
2022-09-11T04:34:56.852Z,14.30
2022-09-11T04:37:23.513Z,14.40
2022-09-11T04:39:50.577Z,14.40
2022-09-11T04:42:17.749Z,14.40
2022-09-11T04:44:44.461Z,14.40
2022-09-11T04:47:11.518Z,14.40
2022-09-11T04:49:38.732Z,14.40
2022-09-11T04:52:07.301Z,14.40
2022-09-11T04:54:34.500Z,14.40
2022-09-11T04:57:04.335Z,14.50
2022-09-11T04:59:34.068Z,14.60
2022-09-11T05:02:00.822Z,14.60
2022-09-11T05:04:27.579Z,14.70
2022-09-11T05:06:54.332Z,14.70
2022-09-11T05:09:21.039Z,14.60
2022-09-11T05:11:50.532Z,14.60
2022-09-11T05:14:18.447Z,14.80
2022-09-11T05:16:46.317Z,14.90
2022-09-11T05:19:13.016Z,14.90
2022-09-11T05:21:40.145Z,15.00
2022-09-11T05:24:07.016Z,15.00
2022-09-11T05:26:36.579Z,14.90
2022-09-11T05:29:11.936Z,15.00
2022-09-11T05:31:39.154Z,15.10
2022-09-11T05:34:07.580Z,15.30
2022-09-11T05:36:35.483Z,15.30
2022-09-11T05:39:03.550Z,15.30
2022-09-11T05:41:30.662Z,15.30
2022-09-11T05:43:58.726Z,15.40
2022-09-11T05:46:28.074Z,15.60
2022-09-11T05:48:54.740Z,15.90
2022-09-11T05:51:22.758Z,15.70
2022-09-11T05:53:56.049Z,15.70
2022-09-11T05:56:24.596Z,15.80
2022-09-11T05:58:57.173Z,15.80
2022-09-11T06:01:29.824Z,15.60
2022-09-11T06:03:59.038Z,15.60
2022-09-11T06:06:26.248Z,15.60
2022-09-11T06:08:53.425Z,15.60
2022-09-11T06:11:22.504Z,15.60
2022-09-11T06:13:50.193Z,15.70
2022-09-11T06:16:20.044Z,15.80
2022-09-11T06:18:50.795Z,15.90
2022-09-11T06:21:23.721Z,15.90
2022-09-11T06:23:52.102Z,15.90
2022-09-11T06:26:22.627Z,16.00
2022-09-11T06:28:51.531Z,15.90
2022-09-11T06:31:20.680Z,16.00
2022-09-11T06:33:52.083Z,15.90
2022-09-11T06:36:21.271Z,15.90
2022-09-11T06:38:58.196Z,16.00
2022-09-11T06:41:26.519Z,15.90
2022-09-11T06:43:54.193Z,15.90
2022-09-11T06:46:23.888Z,15.90
2022-09-11T06:48:51.907Z,15.90
2022-09-11T06:51:21.680Z,15.90
2022-09-11T06:53:48.994Z,16.00
2022-09-11T06:56:17.875Z,16.00
2022-09-11T06:58:46.481Z,16.00
2022-09-11T07:01:16.510Z,15.90
2022-09-11T07:03:49.978Z,15.80
2022-09-11T07:06:25.112Z,15.70
2022-09-11T07:09:01.183Z,15.80
2022-09-11T07:11:29.601Z,15.70
2022-09-11T07:13:56.998Z,15.80
2022-09-11T07:16:23.729Z,15.80
2022-09-11T07:18:53.813Z,15.90
2022-09-11T07:21:23.288Z,16.20
2022-09-11T07:23:55.929Z,16.30
2022-09-11T07:26:27.068Z,16.30
2022-09-11T07:28:56.457Z,16.30
2022-09-11T07:31:26.488Z,16.20
2022-09-11T07:33:53.550Z,16.40
2022-09-11T07:36:24.587Z,16.60
2022-09-11T07:38:52.551Z,17.00
2022-09-11T07:41:24.628Z,17.40
2022-09-11T07:43:56.508Z,17.40
2022-09-11T07:46:24.861Z,17.50
2022-09-11T07:48:51.771Z,17.40
2022-09-11T07:51:21.292Z,17.30
2022-09-11T07:53:50.707Z,17.60
2022-09-11T07:56:20.125Z,17.60
2022-09-11T07:58:50.930Z,17.50
2022-09-11T08:01:20.521Z,17.60
2022-09-11T08:03:47.490Z,17.80
2022-09-11T08:06:21.888Z,17.90
2022-09-11T08:08:56.409Z,17.90
2022-09-11T08:11:24.944Z,17.90
2022-09-11T08:13:54.364Z,17.80
2022-09-11T08:16:24.697Z,17.90
2022-09-11T08:18:53.116Z,18.00
2022-09-11T08:21:19.916Z,18.00
2022-09-11T08:23:47.280Z,18.10
2022-09-11T08:26:19.738Z,18.50
2022-09-11T08:28:47.865Z,19.00
2022-09-11T08:31:14.639Z,19.20
2022-09-11T08:33:41.839Z,19.40
2022-09-11T08:36:11.365Z,19.50
2022-09-11T08:38:38.867Z,19.40
2022-09-11T08:41:26.544Z,19.30
2022-09-11T08:44:11.187Z,19.00
2022-09-11T08:46:42.760Z,19.00
2022-09-11T08:49:26.992Z,18.90
2022-09-11T08:51:58.499Z,18.60
2022-09-11T08:54:29.100Z,18.60
2022-09-11T08:57:11.097Z,18.60
2022-09-11T09:00:16.298Z,18.50
2022-09-11T09:03:02.650Z,18.40
2022-09-11T09:06:08.661Z,17.90
2022-09-11T09:09:13.796Z,18.00
2022-09-11T09:11:52.678Z,18.20
2022-09-11T09:14:22.185Z,18.60
2022-09-11T09:16:57.870Z,19.00
2022-09-11T09:19:51.016Z,19.30
2022-09-11T09:22:54.710Z,19.30
2022-09-11T09:25:24.106Z,19.50
2022-09-11T09:28:00.616Z,19.60
2022-09-11T09:30:30.824Z,19.50
2022-09-11T09:33:15.700Z,19.70
2022-09-11T09:35:45.174Z,19.10
2022-09-11T09:38:18.641Z,18.80
2022-09-11T09:41:18.638Z,18.60
2022-09-11T09:44:01.051Z,18.60
2022-09-11T09:46:51.201Z,18.80
2022-09-11T09:49:25.314Z,18.90
2022-09-11T09:52:04.688Z,18.90
2022-09-11T09:54:34.251Z,19.10
2022-09-11T09:57:04.714Z,19.40
2022-09-11T10:00:02.931Z,19.80
2022-09-11T10:02:42.649Z,19.90
2022-09-11T10:05:14.074Z,20.30
2022-09-11T10:07:54.300Z,20.20
2022-09-11T10:10:38.337Z,20.00
2022-09-11T10:13:21.353Z,19.80
2022-09-11T10:16:00.213Z,19.30
2022-09-11T10:18:32.771Z,18.80
2022-09-11T10:21:12.517Z,18.60
2022-09-11T10:23:56.323Z,18.40
2022-09-11T10:26:32.895Z,18.50
2022-09-11T10:29:07.117Z,18.50
2022-09-11T10:31:36.736Z,18.90
2022-09-11T10:34:04.506Z,19.40
2022-09-11T10:36:32.770Z,19.90
2022-09-11T10:39:01.631Z,20.20
2022-09-11T10:41:34.244Z,20.30
2022-09-11T10:44:11.773Z,20.30
2022-09-11T10:46:43.233Z,20.40
2022-09-11T10:49:23.350Z,20.40
2022-09-11T10:52:08.076Z,20.30
2022-09-11T10:54:55.872Z,20.60
2022-09-11T11:25:30.730Z,19.50
2022-09-11T11:35:21.090Z,18.80
2022-09-11T11:37:50.384Z,18.80
2022-09-11T11:40:32.645Z,19.00
2022-09-11T11:43:07.775Z,19.30
2022-09-11T12:13:48.324Z,19.00
2022-09-11T12:16:29.984Z,18.80
2022-09-11T12:19:49.469Z,18.30
2022-09-11T13:10:47.708Z,18.70
2022-09-11T13:13:43.458Z,19.00
2022-09-11T13:16:37.532Z,19.00
2022-09-11T13:19:14.387Z,18.60
2022-09-11T13:21:42.369Z,18.50
2022-09-11T13:24:30.281Z,18.30
2022-09-11T13:27:21.505Z,18.20
2022-09-11T13:29:48.892Z,18.20
2022-09-11T13:32:17.426Z,18.10
2022-09-11T13:34:46.210Z,18.20
2022-09-11T13:37:34.464Z,18.30
2022-09-11T13:40:03.660Z,18.40
2022-09-11T13:42:31.094Z,18.90
2022-09-11T13:45:01.016Z,19.20
2022-09-11T13:47:32.094Z,19.50
2022-09-11T13:50:02.763Z,19.30
2022-09-11T13:52:33.601Z,19.30
2022-09-11T13:55:09.887Z,19.40
2022-09-11T13:57:54.973Z,19.30
2022-09-11T14:00:44.976Z,19.20
2022-09-11T14:03:23.436Z,19.10
2022-09-11T14:05:58.301Z,18.90
2022-09-11T14:08:39.370Z,18.90
2022-09-11T14:11:28.577Z,18.80
2022-09-11T14:14:00.280Z,18.80
2022-09-11T14:16:34.927Z,19.00
2022-09-11T14:19:22.066Z,19.20
2022-09-11T14:21:53.564Z,19.50
2022-09-11T14:24:38.848Z,19.40
2022-09-11T14:27:31.750Z,19.30
2022-09-11T14:29:59.645Z,19.20
2022-09-11T14:32:38.327Z,19.40
2022-09-11T14:35:09.244Z,19.70
2022-09-11T14:37:42.506Z,19.70
2022-09-11T14:40:17.741Z,19.80
2022-09-11T14:42:45.901Z,19.90
2022-09-11T14:45:22.944Z,19.60
2022-09-11T14:47:51.351Z,19.50
2022-09-11T14:50:18.608Z,19.50
2022-09-11T14:52:45.972Z,19.50
2022-09-11T14:55:19.855Z,19.40
2022-09-11T14:57:48.287Z,19.20
2022-09-11T15:00:16.983Z,19.30
2022-09-11T15:02:46.405Z,19.30
2022-09-11T15:05:18.356Z,19.30
2022-09-11T15:07:47.226Z,19.20
2022-09-11T15:10:14.667Z,19.10
2022-09-11T15:12:42.944Z,19.10
2022-09-11T15:15:10.288Z,19.10
2022-09-11T15:17:37.272Z,19.00
2022-09-11T15:20:07.476Z,18.90
2022-09-11T15:22:35.391Z,18.80
2022-09-11T15:25:04.017Z,18.70
2022-09-11T15:27:31.322Z,18.60
2022-09-11T15:29:58.456Z,18.50
2022-09-11T15:32:25.199Z,18.40
2022-09-11T15:34:53.052Z,18.20
2022-09-11T15:37:19.978Z,18.10
2022-09-11T15:39:47.977Z,18.00
2022-09-11T15:42:14.754Z,18.00
2022-09-11T15:44:42.120Z,17.80
2022-09-11T15:47:11.506Z,17.80
2022-09-11T15:49:42.617Z,17.80
2022-09-11T15:52:09.948Z,17.90
2022-09-11T15:54:37.886Z,17.80
2022-09-11T15:57:04.593Z,17.70
2022-09-11T15:59:34.378Z,17.70
2022-09-11T16:02:01.091Z,17.60
2022-09-11T16:04:32.101Z,17.60
2022-09-11T16:06:59.318Z,17.60
2022-09-11T16:09:28.436Z,17.50
2022-09-11T16:11:56.022Z,17.40
2022-09-11T16:14:26.072Z,17.40
2022-09-11T16:16:53.391Z,17.40
2022-09-11T16:19:23.415Z,17.40
2022-09-11T16:21:50.216Z,17.40
2022-09-11T16:24:17.639Z,17.30
2022-09-11T16:26:44.664Z,17.30
2022-09-11T16:29:15.215Z,17.20
2022-09-11T16:31:42.576Z,17.20
2022-09-11T16:34:13.527Z,17.10
2022-09-11T16:36:40.967Z,17.10
2022-09-11T16:39:10.284Z,17.00
2022-09-11T16:41:37.751Z,17.10
2022-09-11T16:44:06.637Z,17.10
2022-09-11T16:46:34.928Z,17.10
2022-09-11T16:49:02.347Z,17.00
2022-09-11T16:51:29.851Z,17.00
2022-09-11T16:53:57.511Z,17.00
2022-09-11T16:56:26.034Z,17.10
2022-09-11T16:59:12.331Z,17.10
2022-09-11T17:01:39.372Z,17.00
2022-09-11T17:04:06.136Z,16.90
2022-09-11T17:06:34.422Z,16.90
2022-09-11T17:09:02.876Z,16.80
2022-09-11T17:11:32.651Z,16.80
2022-09-11T17:14:03.596Z,16.80
2022-09-11T17:16:35.255Z,16.90
2022-09-11T17:19:02.580Z,16.80
2022-09-11T17:21:35.670Z,16.80
2022-09-11T17:24:03.889Z,16.80
2022-09-11T17:26:31.809Z,16.70
2022-09-11T17:29:04.765Z,16.60
2022-09-11T17:31:32.166Z,16.70
2022-09-11T17:33:59.048Z,16.70
2022-09-11T17:36:25.730Z,16.70
2022-09-11T17:38:53.164Z,16.70
2022-09-11T17:41:21.308Z,16.70
2022-09-11T17:43:48.918Z,16.70
2022-09-11T17:46:19.241Z,16.60
2022-09-11T17:48:46.331Z,16.60
2022-09-11T17:51:20.578Z,16.70
2022-09-11T17:53:51.339Z,16.70
2022-09-11T17:56:21.749Z,16.70
2022-09-11T17:58:55.051Z,16.60
2022-09-11T18:01:23.117Z,16.70
2022-09-11T18:03:52.615Z,16.50
2022-09-11T18:06:34.285Z,16.50
2022-09-11T18:09:18.262Z,16.30
2022-09-11T18:11:47.740Z,16.20
2022-09-11T18:14:15.281Z,16.00
2022-09-11T18:16:47.142Z,15.90
2022-09-11T18:19:20.434Z,15.80
2022-09-11T18:21:50.361Z,15.80
2022-09-11T18:24:21.623Z,15.80
2022-09-11T18:26:51.568Z,15.90
2022-09-11T18:29:20.253Z,15.70
2022-09-11T18:31:50.138Z,15.60
2022-09-11T18:34:20.821Z,15.60
2022-09-11T18:36:48.255Z,15.60
2022-09-11T18:39:17.994Z,15.60
2022-09-11T18:41:48.331Z,15.50
2022-09-11T18:44:19.864Z,15.50
2022-09-11T18:46:48.012Z,15.40
2022-09-11T18:49:18.818Z,15.50
2022-09-11T18:51:47.518Z,15.60
2022-09-11T18:54:17.052Z,15.60
2022-09-11T18:56:45.080Z,15.60
2022-09-11T18:59:13.358Z,15.70
2022-09-11T19:01:41.305Z,15.70
2022-09-11T19:04:11.451Z,15.70
2022-09-11T19:06:39.404Z,15.70
2022-09-11T19:09:10.584Z,15.80
2022-09-11T19:11:38.332Z,15.90
2022-09-11T19:14:07.914Z,16.00
2022-09-11T19:16:35.648Z,16.00
2022-09-11T19:19:03.048Z,16.10
2022-09-11T19:21:30.654Z,16.00
2022-09-11T19:24:00.320Z,15.90
2022-09-11T19:26:33.280Z,15.80
2022-09-11T19:29:08.661Z,15.80
2022-09-11T19:31:37.182Z,15.50
2022-09-11T19:34:04.145Z,15.40
2022-09-11T19:36:34.335Z,15.30
2022-09-11T19:39:01.561Z,15.30
2022-09-11T19:41:33.711Z,15.30
2022-09-11T19:44:02.683Z,15.30
2022-09-11T19:46:32.013Z,15.20
2022-09-11T19:49:02.162Z,15.30
2022-09-11T19:51:32.231Z,15.30
2022-09-11T19:54:00.715Z,15.40
2022-09-11T19:56:28.580Z,15.40
2022-09-11T19:58:55.962Z,15.30
2022-09-11T20:01:25.564Z,15.20
2022-09-11T20:03:53.941Z,15.20
2022-09-11T20:06:25.896Z,15.20
2022-09-11T20:09:19.878Z,15.40
2022-09-11T20:11:44.710Z,15.40
2022-09-11T20:14:15.020Z,15.40
2022-09-11T20:16:43.521Z,15.40
2022-09-11T20:19:15.989Z,15.50
2022-09-11T20:21:42.822Z,15.70
2022-09-11T20:24:09.661Z,15.60
2022-09-11T20:26:37.029Z,15.60
2022-09-11T20:29:11.849Z,15.60
2022-09-11T20:31:48.830Z,15.90
2022-09-11T20:34:20.299Z,16.00
2022-09-11T20:36:48.579Z,16.00
2022-09-11T20:39:16.344Z,16.00
2022-09-11T20:41:45.103Z,16.00
2022-09-11T20:44:12.789Z,15.90
2022-09-11T20:46:47.714Z,15.80
2022-09-11T20:49:17.010Z,15.90
2022-09-11T20:51:44.171Z,15.80
2022-09-11T20:54:10.906Z,15.70
2022-09-11T20:56:37.827Z,15.70
2022-09-11T20:59:04.533Z,15.60
2022-09-11T21:01:32.607Z,15.60
2022-09-11T21:04:01.425Z,15.50
2022-09-11T21:06:33.182Z,15.30
2022-09-11T21:09:09.350Z,15.30
2022-09-11T21:11:38.191Z,15.20
2022-09-11T21:14:09.540Z,15.30
2022-09-11T21:16:40.190Z,15.30
2022-09-11T21:19:21.484Z,15.20
2022-09-11T21:21:53.588Z,15.20
2022-09-11T21:24:24.305Z,15.20
2022-09-11T21:26:53.835Z,15.00
2022-09-11T21:29:23.522Z,15.00
2022-09-11T21:31:55.847Z,14.90
2022-09-11T21:34:23.598Z,14.90
2022-09-11T21:36:51.377Z,14.80
2022-09-11T21:39:27.494Z,14.80
2022-09-11T21:42:50.638Z,14.80
2022-09-11T21:45:17.927Z,14.70
2022-09-11T21:47:45.662Z,14.60
2022-09-11T21:50:14.419Z,14.80
2022-09-11T21:52:43.393Z,14.90
2022-09-11T21:55:12.595Z,14.90
2022-09-11T21:57:40.005Z,15.10
2022-09-11T22:00:14.394Z,15.30
2022-09-11T22:02:43.302Z,15.30
2022-09-11T22:05:17.295Z,15.40
2022-09-11T22:07:45.700Z,15.30
2022-09-11T22:10:14.191Z,15.30
2022-09-11T22:12:42.485Z,15.20
2022-09-11T22:15:10.471Z,15.30
2022-09-11T22:17:41.832Z,15.20
2022-09-11T22:20:14.463Z,15.10
2022-09-11T22:22:46.644Z,15.10
2022-09-11T22:25:14.497Z,15.10
2022-09-11T22:27:46.961Z,15.00
2022-09-11T22:30:15.375Z,15.00
2022-09-11T22:32:42.710Z,15.00
2022-09-11T22:35:11.000Z,14.90
2022-09-11T22:37:40.377Z,14.90
2022-09-11T22:40:08.141Z,14.90
2022-09-11T22:42:35.300Z,14.90
2022-09-11T22:45:02.033Z,14.90
2022-09-11T22:47:29.028Z,15.00
2022-09-11T22:49:57.153Z,14.90
2022-09-11T22:52:24.535Z,14.90
2022-09-11T22:54:52.513Z,14.80
2022-09-11T22:57:21.172Z,14.70
2022-09-11T22:59:48.235Z,14.60
2022-09-11T23:02:17.013Z,14.50
2022-09-11T23:05:05.611Z,14.40
2022-09-11T23:07:34.013Z,14.40
2022-09-11T23:10:02.469Z,14.30
2022-09-11T23:12:30.913Z,14.20
2022-09-11T23:14:58.668Z,14.30
2022-09-11T23:17:26.095Z,14.20
2022-09-11T23:19:55.442Z,14.10
2022-09-11T23:22:23.967Z,14.00
2022-09-11T23:24:51.992Z,14.00
2022-09-11T23:27:19.516Z,13.90
2022-09-11T23:29:48.303Z,13.90
2022-09-11T23:32:15.996Z,13.90
2022-09-11T23:34:42.874Z,13.90
2022-09-11T23:37:10.270Z,14.00
2022-09-11T23:39:42.232Z,13.90
2022-09-11T23:42:10.516Z,13.80
2022-09-11T23:44:37.515Z,13.80
2022-09-11T23:47:04.811Z,13.70
2022-09-11T23:49:36.036Z,13.80
2022-09-11T23:52:06.313Z,13.70
2022-09-11T23:54:33.532Z,13.70
2022-09-11T23:57:05.926Z,13.80
2022-09-11T23:59:35.915Z,13.90
